createdAt,value
2022-08-16T00:04:30.831Z,18.83
2022-08-16T00:09:31.747Z,18.81
2022-08-16T00:14:36.480Z,18.90
2022-08-16T00:19:41.924Z,18.73
2022-08-16T00:24:44.932Z,18.61
2022-08-16T00:29:47.715Z,18.52
2022-08-16T00:35:02.892Z,18.52
2022-08-16T00:40:34.276Z,18.56
2022-08-16T00:45:58.303Z,18.47
2022-08-16T00:51:03.680Z,18.26
2022-08-16T00:56:10.108Z,18.09
2022-08-16T01:01:32.659Z,18.10
2022-08-16T01:06:40.321Z,18.09
2022-08-16T01:11:51.728Z,17.98
2022-08-16T01:16:58.708Z,18.02
2022-08-16T01:22:46.826Z,18.09
2022-08-16T01:27:34.438Z,18.01
2022-08-16T01:32:38.642Z,17.90
2022-08-16T01:37:42.573Z,17.98
2022-08-16T01:42:49.680Z,17.91
2022-08-16T01:47:55.342Z,17.82
2022-08-16T01:53:00.486Z,17.80
2022-08-16T01:58:31.682Z,17.67
2022-08-16T02:03:33.519Z,17.55
2022-08-16T02:08:34.488Z,17.57
2022-08-16T02:13:41.631Z,17.69
2022-08-16T02:18:43.770Z,17.53
2022-08-16T02:23:50.931Z,17.50
2022-08-16T02:28:57.935Z,17.50
2022-08-16T02:33:58.557Z,17.43
2022-08-16T02:39:10.838Z,17.39
2022-08-16T02:44:14.676Z,17.40
2022-08-16T02:49:20.510Z,17.40
2022-08-16T02:54:23.934Z,17.60
2022-08-16T02:59:27.496Z,17.47
2022-08-16T03:04:51.148Z,17.45
2022-08-16T03:09:54.802Z,17.42
2022-08-16T03:14:59.212Z,17.43
2022-08-16T03:20:02.891Z,17.25
2022-08-16T03:25:12.597Z,17.05
2022-08-16T03:30:26.641Z,16.92
2022-08-16T03:35:34.035Z,16.82
2022-08-16T03:40:42.889Z,16.80
2022-08-16T03:45:45.405Z,16.69
2022-08-16T03:50:59.817Z,16.67
2022-08-16T03:56:01.881Z,16.66
2022-08-16T04:01:05.417Z,16.63
2022-08-16T04:06:08.358Z,16.73
2022-08-16T04:11:10.730Z,16.79
2022-08-16T04:16:27.446Z,16.76
2022-08-16T04:21:45.907Z,16.77
2022-08-16T04:26:51.912Z,16.93
2022-08-16T04:31:58.210Z,16.97
2022-08-16T04:37:05.163Z,16.98
2022-08-16T04:42:11.273Z,17.01
2022-08-16T04:47:21.555Z,17.08
2022-08-16T04:52:34.190Z,17.09
2022-08-16T04:57:38.043Z,17.15
2022-08-16T05:02:42.887Z,17.20
2022-08-16T05:07:59.662Z,17.25
2022-08-16T05:13:06.419Z,17.34
2022-08-16T05:18:09.301Z,17.48
2022-08-16T05:23:25.567Z,17.55
2022-08-16T05:28:39.068Z,17.59
2022-08-16T05:33:42.791Z,17.69
2022-08-16T05:38:43.996Z,17.73
2022-08-16T05:43:48.164Z,17.80
2022-08-16T05:49:09.039Z,17.94
2022-08-16T05:54:17.382Z,18.13
2022-08-16T05:59:30.476Z,18.22
2022-08-16T06:04:36.022Z,18.36
2022-08-16T06:09:43.560Z,18.47
2022-08-16T06:14:45.955Z,18.67
2022-08-16T06:19:48.281Z,18.86
2022-08-16T06:24:55.329Z,19.06
2022-08-16T06:29:57.470Z,19.27
2022-08-16T06:35:02.808Z,19.48
2022-08-16T06:40:12.489Z,19.67
2022-08-16T06:45:21.453Z,19.80
2022-08-16T06:50:35.409Z,20.04
2022-08-16T06:55:40.228Z,20.29
2022-08-16T07:00:45.387Z,20.50
2022-08-16T07:05:47.689Z,20.84
2022-08-16T07:10:56.576Z,21.03
2022-08-16T07:16:01.657Z,21.21
2022-08-16T07:21:04.410Z,21.43
2022-08-16T07:26:08.834Z,21.63
2022-08-16T07:31:13.032Z,21.87
2022-08-16T07:36:21.872Z,22.07
2022-08-16T07:41:23.234Z,22.43
2022-08-16T07:46:38.822Z,22.65
2022-08-16T07:52:02.583Z,22.68
2022-08-16T07:57:21.036Z,22.72
2022-08-16T08:02:27.369Z,22.77
2022-08-16T08:07:32.540Z,23.12
2022-08-16T08:12:35.707Z,23.38
2022-08-16T08:17:42.978Z,23.63
2022-08-16T08:22:48.526Z,23.71
2022-08-16T08:27:50.476Z,23.81
2022-08-16T08:33:01.072Z,23.94
2022-08-16T08:38:08.220Z,23.97
2022-08-16T08:43:18.017Z,24.05
2022-08-16T08:48:34.219Z,24.15
2022-08-16T08:53:40.029Z,24.38
2022-08-16T08:58:54.041Z,24.49
2022-08-16T09:04:05.970Z,24.50
2022-08-16T09:09:09.611Z,24.66
2022-08-16T09:14:23.839Z,24.73
2022-08-16T09:19:33.082Z,24.73
2022-08-16T09:24:52.127Z,24.80
2022-08-16T09:30:00.245Z,24.94
2022-08-16T09:35:02.429Z,25.06
2022-08-16T09:40:32.907Z,25.09
2022-08-16T09:45:28.811Z,25.35
2022-08-16T09:50:37.278Z,25.47
2022-08-16T09:55:44.506Z,25.70
2022-08-16T10:00:45.879Z,25.71
2022-08-16T10:05:47.160Z,25.69
2022-08-16T10:11:03.333Z,25.87
2022-08-16T10:21:15.636Z,26.24
2022-08-16T10:27:16.840Z,26.20
2022-08-16T10:31:45.325Z,26.16
2022-08-16T10:36:46.946Z,26.22
2022-08-16T10:41:56.374Z,26.52
2022-08-16T10:46:59.703Z,26.77
2022-08-16T10:52:18.073Z,27.08
2022-08-16T10:57:24.562Z,27.94
2022-08-16T11:02:57.530Z,27.90
2022-08-16T11:07:51.931Z,27.71
2022-08-16T11:12:56.441Z,27.77
2022-08-16T11:23:18.275Z,28.12
2022-08-16T11:33:58.890Z,28.18
2022-08-16T11:39:01.013Z,27.77
2022-08-16T11:44:03.197Z,27.76
2022-08-16T11:49:08.618Z,28.02
2022-08-16T11:54:20.918Z,28.07
2022-08-16T11:59:28.459Z,28.36
2022-08-16T12:04:30.202Z,28.53
2022-08-16T12:09:31.172Z,28.77
2022-08-16T12:14:35.241Z,28.91
2022-08-16T12:19:36.482Z,29.02
2022-08-16T12:24:38.693Z,28.96
2022-08-16T12:29:40.619Z,29.14
2022-08-16T12:34:50.402Z,29.41
2022-08-16T12:39:56.171Z,29.24
2022-08-16T12:44:58.277Z,29.42
2022-08-16T12:49:58.970Z,29.59
2022-08-16T12:55:00.824Z,29.85
2022-08-16T13:00:02.855Z,29.98
2022-08-16T13:05:03.560Z,30.32
2022-08-16T13:10:21.197Z,30.40
2022-08-16T13:15:31.878Z,29.84
2022-08-16T13:20:37.034Z,29.65
2022-08-16T13:25:43.720Z,29.45
2022-08-16T13:30:50.497Z,29.06
2022-08-16T13:35:55.663Z,29.44
2022-08-16T13:41:02.286Z,29.48
2022-08-16T13:46:06.638Z,29.33
2022-08-16T13:51:07.666Z,29.40
2022-08-16T13:56:08.848Z,29.33
2022-08-16T14:01:12.672Z,29.69
2022-08-16T14:06:14.230Z,30.09
2022-08-16T14:11:16.478Z,30.11
2022-08-16T14:16:24.315Z,29.96
2022-08-16T14:21:35.428Z,30.27
2022-08-16T14:26:36.500Z,30.18
2022-08-16T14:31:39.746Z,29.63
2022-08-16T14:36:42.233Z,29.96
2022-08-16T14:41:43.138Z,30.52
2022-08-16T14:46:45.128Z,30.67
2022-08-16T14:51:46.364Z,30.78
2022-08-16T14:56:54.831Z,30.90
2022-08-16T15:02:00.738Z,30.80
2022-08-16T15:07:01.839Z,30.73
2022-08-16T15:12:07.253Z,30.96
2022-08-16T15:17:35.790Z,30.52
2022-08-16T15:22:40.768Z,30.72
2022-08-16T15:27:43.512Z,30.53
2022-08-16T15:32:45.866Z,29.88
2022-08-16T15:37:46.626Z,30.22
2022-08-16T15:42:57.670Z,29.49
2022-08-16T15:47:59.604Z,29.32
2022-08-16T15:53:12.564Z,29.37
2022-08-16T15:58:34.497Z,29.86
2022-08-16T16:03:36.202Z,30.20
2022-08-16T16:08:38.877Z,30.01
2022-08-16T16:13:40.573Z,29.94
2022-08-16T16:18:42.618Z,30.46
2022-08-16T16:23:54.739Z,30.56
2022-08-16T16:29:07.599Z,30.66
2022-08-16T16:34:16.553Z,31.06
2022-08-16T16:39:17.789Z,31.12
2022-08-16T16:44:32.109Z,30.96
2022-08-16T16:49:36.526Z,32.38
2022-08-16T16:54:42.474Z,32.25
2022-08-16T16:59:43.064Z,32.16
2022-08-16T17:04:47.200Z,30.69
2022-08-16T17:09:48.162Z,30.93
2022-08-16T17:14:48.778Z,31.07
2022-08-16T17:19:51.217Z,29.83
2022-08-16T17:24:53.312Z,28.94
2022-08-16T17:29:55.557Z,28.60
2022-08-16T17:35:00.418Z,28.80
2022-08-16T17:40:06.246Z,28.39
2022-08-16T17:45:23.084Z,28.00
2022-08-16T17:50:25.538Z,27.80
2022-08-16T17:55:30.977Z,28.02
2022-08-16T18:00:32.053Z,27.54
2022-08-16T18:05:34.253Z,27.00
2022-08-16T18:10:36.487Z,26.71
2022-08-16T18:15:37.747Z,26.40
2022-08-16T18:20:56.485Z,26.30
2022-08-16T18:25:58.729Z,26.29
2022-08-16T18:31:01.146Z,26.16
2022-08-16T18:36:20.504Z,26.05
2022-08-16T18:41:24.110Z,26.14
2022-08-16T18:46:24.739Z,25.93
2022-08-16T18:51:26.976Z,25.82
2022-08-16T18:56:56.797Z,25.70
2022-08-16T19:01:49.856Z,25.55
2022-08-16T19:06:51.879Z,25.44
2022-08-16T19:11:52.524Z,25.34
2022-08-16T19:16:53.775Z,25.30
2022-08-16T19:21:55.805Z,25.27
2022-08-16T19:26:57.197Z,25.09
2022-08-16T19:31:58.142Z,24.95
2022-08-16T19:37:00.138Z,24.87
2022-08-16T19:42:11.416Z,24.74
2022-08-16T19:47:12.254Z,24.63
2022-08-16T19:52:17.727Z,24.55
2022-08-16T19:57:19.396Z,24.49
2022-08-16T20:02:25.541Z,24.43
2022-08-16T20:07:38.770Z,24.37
2022-08-16T20:12:41.446Z,24.28
2022-08-16T20:17:43.975Z,24.27
2022-08-16T20:22:54.598Z,24.19
2022-08-16T20:27:56.026Z,24.14
2022-08-16T20:32:57.512Z,24.10
2022-08-16T20:38:00.949Z,24.05
2022-08-16T20:43:07.319Z,23.97
2022-08-16T20:48:08.105Z,23.94
2022-08-16T20:53:10.584Z,23.87
2022-08-16T20:58:11.194Z,23.87
2022-08-16T21:03:13.922Z,23.87
2022-08-16T21:08:51.143Z,23.69
2022-08-16T21:13:42.506Z,23.63
2022-08-16T21:18:44.145Z,23.69
2022-08-16T21:23:46.131Z,23.61
2022-08-16T21:28:46.781Z,23.63
2022-08-16T21:33:54.812Z,23.69
2022-08-16T21:38:57.289Z,23.66
2022-08-16T21:43:57.916Z,23.48
2022-08-16T21:48:58.597Z,23.44
2022-08-16T21:54:02.289Z,23.37
2022-08-16T21:59:07.005Z,23.19
2022-08-16T22:04:37.579Z,23.29
2022-08-16T22:09:31.273Z,23.13
2022-08-16T22:14:32.134Z,23.09
2022-08-16T22:19:32.724Z,22.95
2022-08-16T22:24:34.774Z,22.97
2022-08-16T22:29:35.421Z,23.10
2022-08-16T22:34:40.157Z,22.99
2022-08-16T22:39:42.102Z,22.89
2022-08-16T22:44:46.286Z,22.79
2022-08-16T22:49:47.211Z,22.67
2022-08-16T22:54:49.320Z,22.49
2022-08-16T22:59:50.187Z,22.58
2022-08-16T23:04:53.998Z,22.59
2022-08-16T23:09:55.943Z,22.56
2022-08-16T23:14:57.385Z,22.47
2022-08-16T23:19:58.957Z,22.39
2022-08-16T23:25:01.796Z,22.28
2022-08-16T23:30:02.439Z,22.34
2022-08-16T23:35:04.118Z,22.38
2022-08-16T23:40:07.566Z,22.31
2022-08-16T23:45:09.272Z,22.17
2022-08-16T23:50:10.534Z,22.12
2022-08-16T23:55:12.799Z,22.00
